sensor_id;sensor_type;location;lat;lon;timestamp;temperature;humidity
15483;DHT22;7843;50.330;7.312;2023-09-30T00:02:26;14.40;99.90
15483;DHT22;7843;50.330;7.312;2023-09-30T00:04:54;14.30;99.90
15483;DHT22;7843;50.330;7.312;2023-09-30T00:07:20;14.20;99.90
15483;DHT22;7843;50.330;7.312;2023-09-30T00:09:48;14.10;99.90
15483;DHT22;7843;50.330;7.312;2023-09-30T00:12:14;14.10;99.90
15483;DHT22;7843;50.330;7.312;2023-09-30T00:14:41;14.00;99.90
15483;DHT22;7843;50.330;7.312;2023-09-30T00:17:08;14.00;99.90
15483;DHT22;7843;50.330;7.312;2023-09-30T00:19:35;13.90;99.90
15483;DHT22;7843;50.330;7.312;2023-09-30T00:22:01;14.00;99.90
15483;DHT22;7843;50.330;7.312;2023-09-30T00:24:28;13.90;99.90
15483;DHT22;7843;50.330;7.312;2023-09-30T00:26:55;14.00;99.90
15483;DHT22;7843;50.330;7.312;2023-09-30T00:29:23;14.10;99.90
15483;DHT22;7843;50.330;7.312;2023-09-30T00:31:49;14.10;99.90
15483;DHT22;7843;50.330;7.312;2023-09-30T00:34:16;14.10;99.90
15483;DHT22;7843;50.330;7.312;2023-09-30T00:36:43;14.20;99.90
15483;DHT22;7843;50.330;7.312;2023-09-30T00:39:10;14.20;99.90
15483;DHT22;7843;50.330;7.312;2023-09-30T00:41:39;14.10;99.90
15483;DHT22;7843;50.330;7.312;2023-09-30T00:44:06;14.10;99.90
15483;DHT22;7843;50.330;7.312;2023-09-30T00:46:37;14.10;99.90
15483;DHT22;7843;50.330;7.312;2023-09-30T00:49:05;14.10;99.90
15483;DHT22;7843;50.330;7.312;2023-09-30T00:51:32;14.10;99.90
15483;DHT22;7843;50.330;7.312;2023-09-30T00:54:00;14.10;99.90
15483;DHT22;7843;50.330;7.312;2023-09-30T00:56:29;14.10;99.90
15483;DHT22;7843;50.330;7.312;2023-09-30T00:58:56;14.10;99.90
15483;DHT22;7843;50.330;7.312;2023-09-30T01:01:23;14.10;99.90
15483;DHT22;7843;50.330;7.312;2023-09-30T01:03:50;14.10;99.90
15483;DHT22;7843;50.330;7.312;2023-09-30T01:06:17;14.10;99.90
15483;DHT22;7843;50.330;7.312;2023-09-30T01:08:44;14.00;99.90
15483;DHT22;7843;50.330;7.312;2023-09-30T01:11:12;13.90;99.90
15483;DHT22;7843;50.330;7.312;2023-09-30T01:13:40;13.80;99.90
15483;DHT22;7843;50.330;7.312;2023-09-30T01:16:10;13.80;99.90
15483;DHT22;7843;50.330;7.312;2023-09-30T01:18:39;13.70;99.90
15483;DHT22;7843;50.330;7.312;2023-09-30T01:21:06;13.60;99.90
15483;DHT22;7843;50.330;7.312;2023-09-30T01:23:34;13.60;99.90
15483;DHT22;7843;50.330;7.312;2023-09-30T01:26:13;13.50;99.90
15483;DHT22;7843;50.330;7.312;2023-09-30T01:28:40;13.50;99.90
15483;DHT22;7843;50.330;7.312;2023-09-30T01:31:07;13.50;99.90
15483;DHT22;7843;50.330;7.312;2023-09-30T01:33:34;13.40;99.90
15483;DHT22;7843;50.330;7.312;2023-09-30T01:36:01;13.40;99.90
15483;DHT22;7843;50.330;7.312;2023-09-30T01:38:28;13.30;99.90
15483;DHT22;7843;50.330;7.312;2023-09-30T01:40:55;13.40;99.90
15483;DHT22;7843;50.330;7.312;2023-09-30T01:43:22;13.40;99.90
15483;DHT22;7843;50.330;7.312;2023-09-30T01:45:49;13.40;99.90
15483;DHT22;7843;50.330;7.312;2023-09-30T01:48:16;13.50;99.90
15483;DHT22;7843;50.330;7.312;2023-09-30T01:50:43;13.60;99.90
15483;DHT22;7843;50.330;7.312;2023-09-30T01:53:10;13.60;99.90
15483;DHT22;7843;50.330;7.312;2023-09-30T01:55:36;13.70;99.90
15483;DHT22;7843;50.330;7.312;2023-09-30T01:58:03;13.80;99.90
15483;DHT22;7843;50.330;7.312;2023-09-30T02:00:30;13.80;99.90
15483;DHT22;7843;50.330;7.312;2023-09-30T02:02:57;13.80;99.90
15483;DHT22;7843;50.330;7.312;2023-09-30T02:05:24;13.90;99.90
15483;DHT22;7843;50.330;7.312;2023-09-30T02:07:51;13.90;99.90
15483;DHT22;7843;50.330;7.312;2023-09-30T02:10:19;13.90;99.90
15483;DHT22;7843;50.330;7.312;2023-09-30T02:12:47;13.90;99.90
15483;DHT22;7843;50.330;7.312;2023-09-30T02:15:14;13.80;99.90
15483;DHT22;7843;50.330;7.312;2023-09-30T02:17:42;13.70;99.90
15483;DHT22;7843;50.330;7.312;2023-09-30T02:20:12;13.70;99.90
15483;DHT22;7843;50.330;7.312;2023-09-30T02:22:40;13.60;99.90
15483;DHT22;7843;50.330;7.312;2023-09-30T02:25:07;13.50;99.90
15483;DHT22;7843;50.330;7.312;2023-09-30T02:27:34;13.40;99.90
15483;DHT22;7843;50.330;7.312;2023-09-30T02:30:01;13.30;99.90
15483;DHT22;7843;50.330;7.312;2023-09-30T02:32:28;13.20;99.90
15483;DHT22;7843;50.330;7.312;2023-09-30T02:34:55;13.10;99.90
15483;DHT22;7843;50.330;7.312;2023-09-30T02:37:21;13.00;99.90
15483;DHT22;7843;50.330;7.312;2023-09-30T02:39:48;12.90;99.90
15483;DHT22;7843;50.330;7.312;2023-09-30T02:42:15;12.80;99.90
15483;DHT22;7843;50.330;7.312;2023-09-30T02:44:41;12.80;99.90
15483;DHT22;7843;50.330;7.312;2023-09-30T02:47:08;12.80;99.90
15483;DHT22;7843;50.330;7.312;2023-09-30T02:49:35;12.70;99.90
15483;DHT22;7843;50.330;7.312;2023-09-30T02:52:02;12.80;99.90
15483;DHT22;7843;50.330;7.312;2023-09-30T02:54:31;12.90;99.90
15483;DHT22;7843;50.330;7.312;2023-09-30T02:56:57;13.00;99.90
15483;DHT22;7843;50.330;7.312;2023-09-30T02:59:24;13.00;99.90
15483;DHT22;7843;50.330;7.312;2023-09-30T03:01:51;12.90;99.90
15483;DHT22;7843;50.330;7.312;2023-09-30T03:04:19;12.80;99.90
15483;DHT22;7843;50.330;7.312;2023-09-30T03:06:46;12.80;99.90
15483;DHT22;7843;50.330;7.312;2023-09-30T03:09:14;12.70;99.90
15483;DHT22;7843;50.330;7.312;2023-09-30T03:11:41;12.70;99.90
15483;DHT22;7843;50.330;7.312;2023-09-30T03:14:11;12.60;99.90
15483;DHT22;7843;50.330;7.312;2023-09-30T03:16:39;12.50;99.90
15483;DHT22;7843;50.330;7.312;2023-09-30T03:19:07;12.40;99.90
15483;DHT22;7843;50.330;7.312;2023-09-30T03:21:35;12.30;99.90
15483;DHT22;7843;50.330;7.312;2023-09-30T03:24:04;12.30;99.90
15483;DHT22;7843;50.330;7.312;2023-09-30T03:26:32;12.20;99.90
15483;DHT22;7843;50.330;7.312;2023-09-30T03:28:59;12.20;99.90
15483;DHT22;7843;50.330;7.312;2023-09-30T03:31:26;12.10;99.90
15483;DHT22;7843;50.330;7.312;2023-09-30T03:33:53;12.10;99.90
15483;DHT22;7843;50.330;7.312;2023-09-30T03:36:23;12.10;99.90
15483;DHT22;7843;50.330;7.312;2023-09-30T03:38:53;12.10;99.90
15483;DHT22;7843;50.330;7.312;2023-09-30T03:41:25;12.00;99.90
15483;DHT22;7843;50.330;7.312;2023-09-30T03:43:52;12.00;99.90
15483;DHT22;7843;50.330;7.312;2023-09-30T03:46:20;12.00;99.90
15483;DHT22;7843;50.330;7.312;2023-09-30T03:48:46;12.00;99.90
15483;DHT22;7843;50.330;7.312;2023-09-30T03:51:14;12.00;99.90
15483;DHT22;7843;50.330;7.312;2023-09-30T03:53:41;11.90;99.90
15483;DHT22;7843;50.330;7.312;2023-09-30T03:56:08;11.90;99.90
15483;DHT22;7843;50.330;7.312;2023-09-30T03:58:39;11.90;99.90
15483;DHT22;7843;50.330;7.312;2023-09-30T04:01:06;11.80;99.90
15483;DHT22;7843;50.330;7.312;2023-09-30T04:03:33;11.80;99.90
15483;DHT22;7843;50.330;7.312;2023-09-30T04:06:01;11.80;99.90
15483;DHT22;7843;50.330;7.312;2023-09-30T04:08:29;11.80;99.90
15483;DHT22;7843;50.330;7.312;2023-09-30T04:10:56;11.80;99.90
15483;DHT22;7843;50.330;7.312;2023-09-30T04:13:22;11.80;99.90
15483;DHT22;7843;50.330;7.312;2023-09-30T04:15:51;11.80;99.90
15483;DHT22;7843;50.330;7.312;2023-09-30T04:18:17;11.80;99.90
15483;DHT22;7843;50.330;7.312;2023-09-30T04:20:46;11.70;99.90
15483;DHT22;7843;50.330;7.312;2023-09-30T04:23:13;11.70;99.90
15483;DHT22;7843;50.330;7.312;2023-09-30T04:25:40;11.60;99.90
15483;DHT22;7843;50.330;7.312;2023-09-30T04:28:09;11.60;99.90
15483;DHT22;7843;50.330;7.312;2023-09-30T04:30:35;11.60;99.90
15483;DHT22;7843;50.330;7.312;2023-09-30T04:33:02;11.60;99.90
15483;DHT22;7843;50.330;7.312;2023-09-30T04:35:31;11.50;99.90
15483;DHT22;7843;50.330;7.312;2023-09-30T04:37:58;11.50;99.90
15483;DHT22;7843;50.330;7.312;2023-09-30T04:40:27;11.40;99.90
15483;DHT22;7843;50.330;7.312;2023-09-30T04:42:56;11.40;99.90
15483;DHT22;7843;50.330;7.312;2023-09-30T04:45:25;11.30;99.90
15483;DHT22;7843;50.330;7.312;2023-09-30T04:47:55;11.30;99.90
15483;DHT22;7843;50.330;7.312;2023-09-30T04:50:25;11.30;99.90
15483;DHT22;7843;50.330;7.312;2023-09-30T04:52:51;11.20;99.90
15483;DHT22;7843;50.330;7.312;2023-09-30T04:55:19;11.20;99.90
15483;DHT22;7843;50.330;7.312;2023-09-30T04:57:47;11.20;99.90
15483;DHT22;7843;50.330;7.312;2023-09-30T05:00:15;11.20;99.90
15483;DHT22;7843;50.330;7.312;2023-09-30T05:02:44;11.20;99.90
15483;DHT22;7843;50.330;7.312;2023-09-30T05:05:12;11.10;99.90
15483;DHT22;7843;50.330;7.312;2023-09-30T05:07:38;11.10;99.90
15483;DHT22;7843;50.330;7.312;2023-09-30T05:10:06;11.10;99.90
15483;DHT22;7843;50.330;7.312;2023-09-30T05:12:37;11.10;99.90
15483;DHT22;7843;50.330;7.312;2023-09-30T05:15:04;11.10;99.90
15483;DHT22;7843;50.330;7.312;2023-09-30T05:17:32;11.00;99.90
15483;DHT22;7843;50.330;7.312;2023-09-30T05:19:59;11.00;99.90
15483;DHT22;7843;50.330;7.312;2023-09-30T05:22:26;11.00;99.90
15483;DHT22;7843;50.330;7.312;2023-09-30T05:24:53;10.90;99.90
15483;DHT22;7843;50.330;7.312;2023-09-30T05:27:20;10.90;99.90
15483;DHT22;7843;50.330;7.312;2023-09-30T05:29:47;10.90;99.90
15483;DHT22;7843;50.330;7.312;2023-09-30T05:32:14;10.80;99.90
15483;DHT22;7843;50.330;7.312;2023-09-30T05:34:41;10.80;99.90
15483;DHT22;7843;50.330;7.312;2023-09-30T05:37:07;10.80;99.90
15483;DHT22;7843;50.330;7.312;2023-09-30T05:39:34;10.90;99.90
15483;DHT22;7843;50.330;7.312;2023-09-30T05:42:01;10.90;99.90
15483;DHT22;7843;50.330;7.312;2023-09-30T05:44:29;11.00;99.90
15483;DHT22;7843;50.330;7.312;2023-09-30T05:46:56;11.00;99.90
15483;DHT22;7843;50.330;7.312;2023-09-30T05:49:23;10.90;99.90
15483;DHT22;7843;50.330;7.312;2023-09-30T05:51:50;10.90;99.90
15483;DHT22;7843;50.330;7.312;2023-09-30T05:54:17;10.80;99.90
15483;DHT22;7843;50.330;7.312;2023-09-30T05:56:44;10.90;99.90
15483;DHT22;7843;50.330;7.312;2023-09-30T05:59:11;10.90;99.90
15483;DHT22;7843;50.330;7.312;2023-09-30T06:01:40;10.90;99.90
15483;DHT22;7843;50.330;7.312;2023-09-30T06:04:07;10.80;99.90
15483;DHT22;7843;50.330;7.312;2023-09-30T06:06:34;10.90;99.90
15483;DHT22;7843;50.330;7.312;2023-09-30T06:09:01;10.90;99.90
15483;DHT22;7843;50.330;7.312;2023-09-30T06:11:28;10.90;99.90
15483;DHT22;7843;50.330;7.312;2023-09-30T06:13:58;11.00;99.90
15483;DHT22;7843;50.330;7.312;2023-09-30T06:16:33;11.00;99.90
15483;DHT22;7843;50.330;7.312;2023-09-30T06:19:01;11.00;99.90
15483;DHT22;7843;50.330;7.312;2023-09-30T06:21:28;11.00;99.90
15483;DHT22;7843;50.330;7.312;2023-09-30T06:23:56;11.00;99.90
15483;DHT22;7843;50.330;7.312;2023-09-30T06:26:22;11.00;99.90
15483;DHT22;7843;50.330;7.312;2023-09-30T06:28:51;11.00;99.90
15483;DHT22;7843;50.330;7.312;2023-09-30T06:31:20;11.00;99.90
15483;DHT22;7843;50.330;7.312;2023-09-30T06:33:47;11.00;99.90
15483;DHT22;7843;50.330;7.312;2023-09-30T06:36:14;11.10;99.90
15483;DHT22;7843;50.330;7.312;2023-09-30T06:38:43;11.10;99.90
15483;DHT22;7843;50.330;7.312;2023-09-30T06:41:15;11.20;99.90
15483;DHT22;7843;50.330;7.312;2023-09-30T06:43:42;11.20;99.90
15483;DHT22;7843;50.330;7.312;2023-09-30T06:46:09;11.30;99.90
15483;DHT22;7843;50.330;7.312;2023-09-30T06:48:37;11.40;99.90
15483;DHT22;7843;50.330;7.312;2023-09-30T06:51:03;11.40;99.90
15483;DHT22;7843;50.330;7.312;2023-09-30T06:53:30;11.50;99.90
15483;DHT22;7843;50.330;7.312;2023-09-30T06:55:57;11.60;99.90
15483;DHT22;7843;50.330;7.312;2023-09-30T06:58:24;11.70;99.90
15483;DHT22;7843;50.330;7.312;2023-09-30T07:00:52;11.70;99.90
15483;DHT22;7843;50.330;7.312;2023-09-30T07:03:20;11.70;99.90
15483;DHT22;7843;50.330;7.312;2023-09-30T07:05:48;11.80;99.90
15483;DHT22;7843;50.330;7.312;2023-09-30T07:08:17;11.90;99.90
15483;DHT22;7843;50.330;7.312;2023-09-30T07:10:44;11.90;99.90
15483;DHT22;7843;50.330;7.312;2023-09-30T07:13:12;12.00;99.90
15483;DHT22;7843;50.330;7.312;2023-09-30T07:15:39;12.00;99.90
15483;DHT22;7843;50.330;7.312;2023-09-30T07:18:06;12.10;99.90
15483;DHT22;7843;50.330;7.312;2023-09-30T07:20:33;12.10;99.90
15483;DHT22;7843;50.330;7.312;2023-09-30T07:23:00;12.20;99.90
15483;DHT22;7843;50.330;7.312;2023-09-30T07:25:37;12.20;99.90
15483;DHT22;7843;50.330;7.312;2023-09-30T07:28:04;12.30;99.90
15483;DHT22;7843;50.330;7.312;2023-09-30T07:30:30;12.30;99.90
15483;DHT22;7843;50.330;7.312;2023-09-30T07:32:57;12.30;99.90
15483;DHT22;7843;50.330;7.312;2023-09-30T07:35:24;12.30;99.90
15483;DHT22;7843;50.330;7.312;2023-09-30T07:37:51;12.40;99.90
15483;DHT22;7843;50.330;7.312;2023-09-30T07:40:19;12.50;99.90
15483;DHT22;7843;50.330;7.312;2023-09-30T07:42:47;12.60;99.90
15483;DHT22;7843;50.330;7.312;2023-09-30T07:45:14;12.70;99.90
15483;DHT22;7843;50.330;7.312;2023-09-30T07:47:44;12.80;99.90
15483;DHT22;7843;50.330;7.312;2023-09-30T07:50:13;12.90;99.90
15483;DHT22;7843;50.330;7.312;2023-09-30T07:52:39;12.90;99.90
15483;DHT22;7843;50.330;7.312;2023-09-30T07:55:08;13.00;99.90
15483;DHT22;7843;50.330;7.312;2023-09-30T07:57:36;13.10;99.90
15483;DHT22;7843;50.330;7.312;2023-09-30T08:00:03;13.20;99.90
15483;DHT22;7843;50.330;7.312;2023-09-30T08:02:36;13.30;99.90
15483;DHT22;7843;50.330;7.312;2023-09-30T08:05:03;13.40;99.90
15483;DHT22;7843;50.330;7.312;2023-09-30T08:07:30;13.50;99.90
15483;DHT22;7843;50.330;7.312;2023-09-30T08:09:57;13.60;99.90
15483;DHT22;7843;50.330;7.312;2023-09-30T08:12:23;13.70;99.90
15483;DHT22;7843;50.330;7.312;2023-09-30T08:14:50;13.70;99.90
15483;DHT22;7843;50.330;7.312;2023-09-30T08:17:18;13.90;99.90
15483;DHT22;7843;50.330;7.312;2023-09-30T08:19:44;13.90;99.90
15483;DHT22;7843;50.330;7.312;2023-09-30T08:22:13;13.90;99.90
15483;DHT22;7843;50.330;7.312;2023-09-30T08:24:41;13.90;99.90
15483;DHT22;7843;50.330;7.312;2023-09-30T08:27:07;14.00;99.90
15483;DHT22;7843;50.330;7.312;2023-09-30T08:29:34;14.00;99.90
15483;DHT22;7843;50.330;7.312;2023-09-30T08:32:04;14.10;99.90
15483;DHT22;7843;50.330;7.312;2023-09-30T08:34:31;14.20;99.90
15483;DHT22;7843;50.330;7.312;2023-09-30T08:36:58;14.20;99.90
15483;DHT22;7843;50.330;7.312;2023-09-30T08:39:27;14.30;99.90
15483;DHT22;7843;50.330;7.312;2023-09-30T08:41:55;14.40;99.90
15483;DHT22;7843;50.330;7.312;2023-09-30T08:44:23;14.60;99.90
15483;DHT22;7843;50.330;7.312;2023-09-30T08:46:51;14.70;99.90
15483;DHT22;7843;50.330;7.312;2023-09-30T08:49:19;14.80;99.90
15483;DHT22;7843;50.330;7.312;2023-09-30T08:51:48;14.90;99.90
15483;DHT22;7843;50.330;7.312;2023-09-30T08:54:16;15.00;99.90
15483;DHT22;7843;50.330;7.312;2023-09-30T08:56:45;15.20;99.90
15483;DHT22;7843;50.330;7.312;2023-09-30T08:59:14;15.30;99.90
15483;DHT22;7843;50.330;7.312;2023-09-30T09:01:41;15.40;99.90
15483;DHT22;7843;50.330;7.312;2023-09-30T09:04:08;15.50;99.90
15483;DHT22;7843;50.330;7.312;2023-09-30T09:06:35;15.50;99.90
15483;DHT22;7843;50.330;7.312;2023-09-30T09:09:18;15.70;99.90
15483;DHT22;7843;50.330;7.312;2023-09-30T09:11:45;15.90;99.90
15483;DHT22;7843;50.330;7.312;2023-09-30T09:14:13;15.90;99.90
15483;DHT22;7843;50.330;7.312;2023-09-30T09:16:56;15.90;99.90
15483;DHT22;7843;50.330;7.312;2023-09-30T09:19:26;15.80;99.90
15483;DHT22;7843;50.330;7.312;2023-09-30T09:22:02;15.80;99.90
15483;DHT22;7843;50.330;7.312;2023-09-30T09:24:35;15.80;99.90
15483;DHT22;7843;50.330;7.312;2023-09-30T09:27:08;15.70;99.90
15483;DHT22;7843;50.330;7.312;2023-09-30T09:29:36;15.70;99.90
15483;DHT22;7843;50.330;7.312;2023-09-30T09:32:13;15.70;99.90
15483;DHT22;7843;50.330;7.312;2023-09-30T09:34:41;15.60;99.90
15483;DHT22;7843;50.330;7.312;2023-09-30T09:37:21;15.60;99.90
15483;DHT22;7843;50.330;7.312;2023-09-30T09:39:58;15.50;99.90
15483;DHT22;7843;50.330;7.312;2023-09-30T09:42:29;15.50;99.90
15483;DHT22;7843;50.330;7.312;2023-09-30T09:45:01;15.50;99.90
15483;DHT22;7843;50.330;7.312;2023-09-30T09:47:32;15.50;99.90
15483;DHT22;7843;50.330;7.312;2023-09-30T09:50:04;15.50;99.90
15483;DHT22;7843;50.330;7.312;2023-09-30T09:52:34;15.50;99.90
15483;DHT22;7843;50.330;7.312;2023-09-30T09:55:02;15.50;99.90
15483;DHT22;7843;50.330;7.312;2023-09-30T09:57:31;15.40;99.90
15483;DHT22;7843;50.330;7.312;2023-09-30T09:59:58;15.40;99.90
15483;DHT22;7843;50.330;7.312;2023-09-30T10:02:26;15.50;99.90
15483;DHT22;7843;50.330;7.312;2023-09-30T10:04:54;15.60;99.90
15483;DHT22;7843;50.330;7.312;2023-09-30T10:07:27;15.80;99.90
15483;DHT22;7843;50.330;7.312;2023-09-30T10:09:55;15.90;99.80
15483;DHT22;7843;50.330;7.312;2023-09-30T10:12:25;15.90;99.70
15483;DHT22;7843;50.330;7.312;2023-09-30T10:14:53;15.90;99.00
15483;DHT22;7843;50.330;7.312;2023-09-30T10:17:20;15.90;98.90
15483;DHT22;7843;50.330;7.312;2023-09-30T10:22:31;16.30;99.90
15483;DHT22;7843;50.330;7.312;2023-09-30T10:24:59;16.50;98.30
15483;DHT22;7843;50.330;7.312;2023-09-30T10:35:18;16.80;98.00
15483;DHT22;7843;50.330;7.312;2023-09-30T10:37:46;17.00;98.40
15483;DHT22;7843;50.330;7.312;2023-09-30T10:40:29;17.20;98.10
15483;DHT22;7843;50.330;7.312;2023-09-30T10:42:57;17.40;97.80
15483;DHT22;7843;50.330;7.312;2023-09-30T10:50:54;17.80;96.40
15483;DHT22;7843;50.330;7.312;2023-09-30T10:53:23;17.90;96.40
15483;DHT22;7843;50.330;7.312;2023-09-30T10:56:00;17.90;96.00
15483;DHT22;7843;50.330;7.312;2023-09-30T10:58:46;18.00;94.90
15483;DHT22;7843;50.330;7.312;2023-09-30T11:01:22;18.20;95.50
15483;DHT22;7843;50.330;7.312;2023-09-30T11:03:53;18.20;95.00
15483;DHT22;7843;50.330;7.312;2023-09-30T11:06:24;18.30;95.40
15483;DHT22;7843;50.330;7.312;2023-09-30T11:08:53;18.40;95.10
15483;DHT22;7843;50.330;7.312;2023-09-30T11:11:37;18.60;94.20
15483;DHT22;7843;50.330;7.312;2023-09-30T11:14:29;18.70;93.80
15483;DHT22;7843;50.330;7.312;2023-09-30T11:17:01;18.90;91.90
15483;DHT22;7843;50.330;7.312;2023-09-30T11:19:36;19.00;89.90
15483;DHT22;7843;50.330;7.312;2023-09-30T11:22:04;19.00;89.90
15483;DHT22;7843;50.330;7.312;2023-09-30T11:24:35;19.20;90.40
15483;DHT22;7843;50.330;7.312;2023-09-30T11:27:02;19.40;89.60
15483;DHT22;7843;50.330;7.312;2023-09-30T11:29:30;19.70;90.80
15483;DHT22;7843;50.330;7.312;2023-09-30T11:31:57;19.70;89.30
15483;DHT22;7843;50.330;7.312;2023-09-30T11:34:34;19.60;90.30
15483;DHT22;7843;50.330;7.312;2023-09-30T11:37:01;19.20;90.10
15483;DHT22;7843;50.330;7.312;2023-09-30T11:39:29;19.00;90.80
15483;DHT22;7843;50.330;7.312;2023-09-30T11:41:57;18.80;91.40
15483;DHT22;7843;50.330;7.312;2023-09-30T11:44:25;18.70;91.70
15483;DHT22;7843;50.330;7.312;2023-09-30T11:46:56;18.60;92.20
15483;DHT22;7843;50.330;7.312;2023-09-30T11:49:32;18.60;93.40
15483;DHT22;7843;50.330;7.312;2023-09-30T11:52:02;18.80;92.40
15483;DHT22;7843;50.330;7.312;2023-09-30T11:54:37;19.10;91.90
15483;DHT22;7843;50.330;7.312;2023-09-30T11:57:06;19.30;90.30
15483;DHT22;7843;50.330;7.312;2023-09-30T11:59:39;19.50;89.60
15483;DHT22;7843;50.330;7.312;2023-09-30T12:02:12;19.70;89.90
15483;DHT22;7843;50.330;7.312;2023-09-30T12:04:45;19.70;88.50
15483;DHT22;7843;50.330;7.312;2023-09-30T12:07:13;19.50;90.00
15483;DHT22;7843;50.330;7.312;2023-09-30T12:09:40;19.40;91.20
15483;DHT22;7843;50.330;7.312;2023-09-30T12:12:08;19.30;89.50
15483;DHT22;7843;50.330;7.312;2023-09-30T12:14:35;19.50;89.20
15483;DHT22;7843;50.330;7.312;2023-09-30T12:17:02;19.70;89.50
15483;DHT22;7843;50.330;7.312;2023-09-30T12:19:29;20.00;89.70
15483;DHT22;7843;50.330;7.312;2023-09-30T12:21:56;20.20;89.00
15483;DHT22;7843;50.330;7.312;2023-09-30T12:24:23;20.40;90.00
15483;DHT22;7843;50.330;7.312;2023-09-30T12:26:51;20.60;88.00
15483;DHT22;7843;50.330;7.312;2023-09-30T12:29:19;21.10;85.30
15483;DHT22;7843;50.330;7.312;2023-09-30T12:31:50;21.30;85.50
15483;DHT22;7843;50.330;7.312;2023-09-30T12:34:18;21.70;86.20
15483;DHT22;7843;50.330;7.312;2023-09-30T12:36:45;22.00;84.60
15483;DHT22;7843;50.330;7.312;2023-09-30T12:39:14;22.10;84.00
15483;DHT22;7843;50.330;7.312;2023-09-30T12:41:44;22.10;83.20
15483;DHT22;7843;50.330;7.312;2023-09-30T12:44:11;22.30;84.10
15483;DHT22;7843;50.330;7.312;2023-09-30T12:46:38;22.60;82.50
15483;DHT22;7843;50.330;7.312;2023-09-30T12:49:06;22.80;81.30
15483;DHT22;7843;50.330;7.312;2023-09-30T12:51:34;22.80;80.50
15483;DHT22;7843;50.330;7.312;2023-09-30T12:54:01;22.70;80.20
15483;DHT22;7843;50.330;7.312;2023-09-30T12:56:28;22.70;80.50
15483;DHT22;7843;50.330;7.312;2023-09-30T12:58:58;22.90;79.10
15483;DHT22;7843;50.330;7.312;2023-09-30T13:01:25;23.20;79.90
15483;DHT22;7843;50.330;7.312;2023-09-30T13:03:52;23.30;80.20
15483;DHT22;7843;50.330;7.312;2023-09-30T13:06:19;23.30;79.80
15483;DHT22;7843;50.330;7.312;2023-09-30T13:08:46;23.40;79.50
15483;DHT22;7843;50.330;7.312;2023-09-30T13:11:14;23.80;76.90
15483;DHT22;7843;50.330;7.312;2023-09-30T13:13:41;24.20;74.70
15483;DHT22;7843;50.330;7.312;2023-09-30T13:16:10;24.60;72.00
15483;DHT22;7843;50.330;7.312;2023-09-30T13:18:37;25.00;72.30
15483;DHT22;7843;50.330;7.312;2023-09-30T13:21:05;25.30;73.00
15483;DHT22;7843;50.330;7.312;2023-09-30T13:23:32;25.40;73.90
15483;DHT22;7843;50.330;7.312;2023-09-30T13:26:00;25.40;73.20
15483;DHT22;7843;50.330;7.312;2023-09-30T13:28:27;25.40;73.80
15483;DHT22;7843;50.330;7.312;2023-09-30T13:30:57;25.40;73.10
15483;DHT22;7843;50.330;7.312;2023-09-30T13:33:24;25.60;71.40
15483;DHT22;7843;50.330;7.312;2023-09-30T13:35:50;25.70;70.70
15483;DHT22;7843;50.330;7.312;2023-09-30T13:38:17;26.00;69.60
15483;DHT22;7843;50.330;7.312;2023-09-30T13:40:44;25.80;68.10
15483;DHT22;7843;50.330;7.312;2023-09-30T13:43:15;25.80;69.10
15483;DHT22;7843;50.330;7.312;2023-09-30T13:45:41;25.50;69.70
15483;DHT22;7843;50.330;7.312;2023-09-30T13:48:08;25.20;71.40
15483;DHT22;7843;50.330;7.312;2023-09-30T13:50:35;24.80;72.50
15483;DHT22;7843;50.330;7.312;2023-09-30T13:53:01;24.50;72.00
15483;DHT22;7843;50.330;7.312;2023-09-30T13:55:29;24.30;71.90
15483;DHT22;7843;50.330;7.312;2023-09-30T13:57:56;23.80;71.70
15483;DHT22;7843;50.330;7.312;2023-09-30T14:00:22;23.50;73.90
15483;DHT22;7843;50.330;7.312;2023-09-30T14:02:50;23.20;76.60
15483;DHT22;7843;50.330;7.312;2023-09-30T14:05:17;22.90;76.20
15483;DHT22;7843;50.330;7.312;2023-09-30T14:07:46;22.70;77.40
15483;DHT22;7843;50.330;7.312;2023-09-30T14:10:13;22.40;78.20
15483;DHT22;7843;50.330;7.312;2023-09-30T14:12:40;22.10;79.80
15483;DHT22;7843;50.330;7.312;2023-09-30T14:15:07;21.80;80.70
15483;DHT22;7843;50.330;7.312;2023-09-30T14:17:34;21.70;82.80
15483;DHT22;7843;50.330;7.312;2023-09-30T14:20:01;21.70;81.40
15483;DHT22;7843;50.330;7.312;2023-09-30T14:22:29;21.60;82.40
15483;DHT22;7843;50.330;7.312;2023-09-30T14:24:56;21.40;83.80
15483;DHT22;7843;50.330;7.312;2023-09-30T14:27:23;21.20;84.50
15483;DHT22;7843;50.330;7.312;2023-09-30T14:29:50;21.00;84.90
15483;DHT22;7843;50.330;7.312;2023-09-30T14:32:17;20.80;86.10
15483;DHT22;7843;50.330;7.312;2023-09-30T14:34:44;20.70;86.70
15483;DHT22;7843;50.330;7.312;2023-09-30T14:37:10;20.50;87.30
15483;DHT22;7843;50.330;7.312;2023-09-30T14:39:37;20.50;88.40
15483;DHT22;7843;50.330;7.312;2023-09-30T14:42:04;20.40;87.90
15483;DHT22;7843;50.330;7.312;2023-09-30T14:44:31;20.50;88.30
15483;DHT22;7843;50.330;7.312;2023-09-30T14:46:58;20.40;88.80
15483;DHT22;7843;50.330;7.312;2023-09-30T14:49:27;20.40;87.90
15483;DHT22;7843;50.330;7.312;2023-09-30T14:51:54;20.40;87.90
15483;DHT22;7843;50.330;7.312;2023-09-30T14:54:22;20.30;88.30
15483;DHT22;7843;50.330;7.312;2023-09-30T14:56:49;20.20;89.20
15483;DHT22;7843;50.330;7.312;2023-09-30T14:59:16;20.20;88.50
15483;DHT22;7843;50.330;7.312;2023-09-30T15:01:42;20.10;89.00
15483;DHT22;7843;50.330;7.312;2023-09-30T15:04:09;20.00;90.10
15483;DHT22;7843;50.330;7.312;2023-09-30T15:06:36;19.90;89.50
15483;DHT22;7843;50.330;7.312;2023-09-30T15:09:04;19.90;88.30
15483;DHT22;7843;50.330;7.312;2023-09-30T15:11:30;19.70;89.60
15483;DHT22;7843;50.330;7.312;2023-09-30T15:13:57;19.60;89.60
15483;DHT22;7843;50.330;7.312;2023-09-30T15:16:25;19.50;90.50
15483;DHT22;7843;50.330;7.312;2023-09-30T15:18:52;19.40;92.20
15483;DHT22;7843;50.330;7.312;2023-09-30T15:21:18;19.40;91.70
15483;DHT22;7843;50.330;7.312;2023-09-30T15:23:46;19.30;91.80
15483;DHT22;7843;50.330;7.312;2023-09-30T15:26:13;19.20;92.70
15483;DHT22;7843;50.330;7.312;2023-09-30T15:28:39;19.00;92.80
15483;DHT22;7843;50.330;7.312;2023-09-30T15:31:06;18.90;92.30
15483;DHT22;7843;50.330;7.312;2023-09-30T15:33:34;18.80;93.10
15483;DHT22;7843;50.330;7.312;2023-09-30T15:36:14;18.80;93.40
15483;DHT22;7843;50.330;7.312;2023-09-30T15:38:41;18.70;93.00
15483;DHT22;7843;50.330;7.312;2023-09-30T15:41:08;18.60;94.40
15483;DHT22;7843;50.330;7.312;2023-09-30T15:43:38;18.50;93.90
15483;DHT22;7843;50.330;7.312;2023-09-30T15:46:04;18.40;94.80
15483;DHT22;7843;50.330;7.312;2023-09-30T15:48:31;18.30;95.10
15483;DHT22;7843;50.330;7.312;2023-09-30T15:50:58;18.20;95.30
15483;DHT22;7843;50.330;7.312;2023-09-30T15:53:25;18.10;95.80
15483;DHT22;7843;50.330;7.312;2023-09-30T15:55:51;18.00;95.80
15483;DHT22;7843;50.330;7.312;2023-09-30T15:58:19;18.00;95.90
15483;DHT22;7843;50.330;7.312;2023-09-30T16:00:46;17.90;95.80
15483;DHT22;7843;50.330;7.312;2023-09-30T16:03:15;17.80;95.10
15483;DHT22;7843;50.330;7.312;2023-09-30T16:05:42;17.80;95.10
15483;DHT22;7843;50.330;7.312;2023-09-30T16:08:09;17.80;95.40